Time;durP1;ratioP1;P1;durP2;ratioP2;P2;SDS_P1;SDS_P2;PMS_P1;PMS_P2;Temp;Humidity;BMP_temperature;BMP_pressure;BME280_temperature;BME280_humidity;BME280_pressure;Samples;Min_cycle;Max_cycle;Signal;HPM_P1;HPM_P2
2022/10/04 00:02:22;;;;;;;6.13;0.95;;;23.60;63.10;;;;;;5030976;28;20045;-40
2022/10/04 00:04:58;;;;;;;7.15;1.00;;;23.60;63.20;;;;;;5021359;28;20030;-61
2022/10/04 00:07:27;;;;;;;7.47;1.00;;;23.60;63.40;;;;;;5017159;28;20091;-49
2022/10/04 00:09:56;;;;;;;6.13;1.05;;;23.60;63.50;;;;;;5002765;28;20056;-48
2022/10/04 00:12:44;;;;;;;7.82;1.40;;;23.60;63.40;;;;;;5017336;28;20079;-45
2022/10/04 00:15:22;;;;;;;6.97;1.08;;;23.60;63.50;;;;;;5019562;28;20025;-50
2022/10/04 00:18:01;;;;;;;4.97;0.95;;;23.60;63.40;;;;;;5015720;28;20042;-45
2022/10/04 00:20:49;;;;;;;8.93;1.05;;;23.70;63.40;;;;;;5014419;28;20034;-53
2022/10/04 00:23:24;;;;;;;8.63;1.30;;;23.70;63.50;;;;;;5014823;28;20134;-52
2022/10/04 00:25:58;;;;;;;3.58;1.00;;;23.70;63.40;;;;;;5024716;28;20311;-43
2022/10/04 00:28:24;;;;;;;8.57;0.95;;;23.70;63.40;;;;;;5018699;28;20026;-47
2022/10/04 00:31:14;;;;;;;4.72;0.90;;;23.70;63.30;;;;;;5028473;28;20065;-48
2022/10/04 00:33:41;;;;;;;2.83;0.85;;;23.70;63.20;;;;;;5018632;28;20121;-40
2022/10/04 00:36:23;;;;;;;6.50;0.90;;;23.70;63.20;;;;;;5021168;28;20030;-40
2022/10/04 00:39:31;;;;;;;5.90;1.30;;;23.70;63.20;;;;;;5023369;28;20041;-60
2022/10/04 00:42:09;;;;;;;3.15;0.90;;;23.70;63.20;;;;;;5014059;28;20054;-45
2022/10/04 00:44:58;;;;;;;0.77;0.57;;;23.70;63.20;;;;;;5019096;28;20037;-39
2022/10/04 00:47:24;;;;;;;4.80;1.02;;;23.70;63.20;;;;;;5017165;28;20068;-47
2022/10/04 00:49:54;;;;;;;3.03;0.93;;;23.70;63.10;;;;;;5022778;28;20032;-48
2022/10/04 00:52:29;;;;;;;2.92;1.05;;;23.70;62.90;;;;;;5027616;28;20033;-52
2022/10/04 00:54:57;;;;;;;4.05;1.00;;;23.70;62.90;;;;;;5030650;28;20026;-46
2022/10/04 00:57:33;;;;;;;2.10;0.85;;;23.70;62.90;;;;;;5010448;28;20041;-50
2022/10/04 01:00:18;;;;;;;1.33;0.73;;;23.70;62.80;;;;;;5025822;28;20085;-46
2022/10/04 01:02:54;;;;;;;2.67;1.00;;;23.70;62.70;;;;;;5008694;28;20088;-44
2022/10/04 01:05:30;;;;;;;1.83;0.75;;;23.70;62.80;;;;;;5018008;28;20030;-47
2022/10/04 01:08:03;;;;;;;2.72;0.60;;;23.70;62.80;;;;;;5023017;28;20116;-51
2022/10/04 01:10:45;;;;;;;5.28;0.80;;;23.70;62.80;;;;;;5034691;28;20058;-49
2022/10/04 01:13:25;;;;;;;2.05;0.60;;;23.70;62.70;;;;;;5021245;28;20046;-44
2022/10/04 01:16:10;;;;;;;1.98;0.77;;;23.70;62.70;;;;;;5007450;28;20037;-38
2022/10/04 01:18:36;;;;;;;2.67;0.70;;;23.70;62.60;;;;;;5021528;28;20025;-45
2022/10/04 01:21:17;;;;;;;2.35;0.68;;;23.70;62.60;;;;;;5018031;28;20044;-45
2022/10/04 01:24:14;;;;;;;0.75;0.50;;;23.70;62.60;;;;;;5020846;28;20048;-42
2022/10/04 01:26:42;;;;;;;0.70;0.50;;;23.70;62.60;;;;;;5017598;28;20038;-44
2022/10/04 01:29:16;;;;;;;0.90;0.50;;;23.70;62.60;;;;;;5022262;28;20042;-43
2022/10/04 01:31:47;;;;;;;0.88;0.50;;;23.70;62.50;;;;;;5027235;28;20042;-44
2022/10/04 01:34:14;;;;;;;0.82;0.50;;;23.70;62.50;;;;;;5021452;28;20056;-44
2022/10/04 01:36:40;;;;;;;0.98;0.47;;;23.70;62.50;;;;;;5019001;28;20040;-42
2022/10/04 01:39:07;;;;;;;0.65;0.50;;;23.70;62.40;;;;;;5026229;28;20041;-41
2022/10/04 01:41:38;;;;;;;0.70;0.52;;;23.70;62.40;;;;;;5024664;28;20021;-40
2022/10/04 01:44:04;;;;;;;0.95;0.50;;;23.70;62.40;;;;;;5023083;28;20036;-38
2022/10/04 01:46:32;;;;;;;0.73;0.40;;;23.70;62.40;;;;;;5026664;28;20030;-38
2022/10/04 01:49:00;;;;;;;0.65;0.47;;;23.70;62.40;;;;;;5007407;28;20048;-39
2022/10/04 01:51:30;;;;;;;0.88;0.50;;;23.70;62.40;;;;;;5028041;28;20022;-39
2022/10/04 01:54:04;;;;;;;1.58;0.57;;;23.70;62.30;;;;;;5030013;28;20045;-39
2022/10/04 01:56:42;;;;;;;0.75;0.50;;;23.70;62.30;;;;;;5021533;28;20053;-42
2022/10/04 01:59:20;;;;;;;0.70;0.40;;;23.70;62.30;;;;;;5028768;28;20041;-42
2022/10/04 02:02:11;;;;;;;0.60;0.43;;;23.70;62.20;;;;;;5022378;28;20113;-41
2022/10/04 02:04:38;;;;;;;0.60;0.30;;;23.70;62.20;;;;;;5020508;28;20755;-40
2022/10/04 02:07:12;;;;;;;0.77;0.50;;;23.70;62.20;;;;;;5022904;28;20045;-41
2022/10/04 02:09:42;;;;;;;0.57;0.40;;;23.70;62.20;;;;;;5019951;28;20030;-40
2022/10/04 02:12:13;;;;;;;2.25;0.43;;;23.60;62.20;;;;;;5037354;28;20053;-41
2022/10/04 02:14:39;;;;;;;1.48;0.60;;;23.60;62.20;;;;;;5027051;28;20112;-41
2022/10/04 02:17:09;;;;;;;0.65;0.43;;;23.60;62.20;;;;;;5025565;28;20090;-44
2022/10/04 02:19:38;;;;;;;0.98;0.40;;;23.60;62.30;;;;;;5027434;28;20022;-40
2022/10/04 02:22:04;;;;;;;0.40;0.40;;;23.60;62.20;;;;;;5020869;28;20041;-40
2022/10/04 02:24:32;;;;;;;2.67;0.40;;;23.60;62.20;;;;;;5030283;28;20029;-39
2022/10/04 02:26:58;;;;;;;2.92;0.50;;;23.60;62.30;;;;;;5024452;28;20033;-44
2022/10/04 02:29:25;;;;;;;0.40;0.30;;;23.60;62.20;;;;;;5039005;28;20052;-43
2022/10/04 02:34:35;;;;;;;0.50;0.30;;;23.60;62.20;;;;;;5029718;28;20076;-41
2022/10/04 02:37:03;;;;;;;0.93;0.50;;;23.60;62.20;;;;;;5021756;28;20025;-47
2022/10/04 02:39:46;;;;;;;;;;;23.60;62.20;;;;;;5026761;28;20737;-47
2022/10/04 02:42:26;;;;;;;0.50;0.30;;;23.60;62.30;;;;;;5022070;28;19921;-43
2022/10/04 02:45:09;;;;;;;0.52;0.30;;;23.60;62.20;;;;;;5021080;28;20042;-48
2022/10/04 02:47:52;;;;;;;0.43;0.40;;;23.60;62.20;;;;;;5020129;28;20490;-46
2022/10/04 02:50:32;;;;;;;0.85;0.38;;;23.50;62.10;;;;;;5015661;28;20037;-46
2022/10/04 02:53:04;;;;;;;0.30;0.30;;;23.50;62.10;;;;;;5032941;28;20034;-47
2022/10/04 02:55:30;;;;;;;0.40;0.30;;;23.50;62.10;;;;;;5017749;28;20037;-46
2022/10/04 02:57:57;;;;;;;0.20;0.20;;;23.50;62.10;;;;;;5019536;28;20026;-46
2022/10/04 03:00:30;;;;;;;0.90;0.22;;;23.50;62.00;;;;;;5008001;28;20762;-47
2022/10/04 03:03:29;;;;;;;0.80;0.40;;;23.50;62.80;;;;;;5021046;28;20093;-44
2022/10/04 03:06:09;;;;;;;0.47;0.30;;;23.50;62.10;;;;;;5018567;28;20090;-40
2022/10/04 03:08:42;;;;;;;0.63;0.30;;;23.50;62.10;;;;;;5035210;28;20034;-41
2022/10/04 03:11:10;;;;;;;0.50;0.30;;;23.50;62.10;;;;;;5021741;28;20030;-42
2022/10/04 03:13:37;;;;;;;0.85;0.30;;;23.50;62.80;;;;;;5022319;28;20037;-42
2022/10/04 03:16:04;;;;;;;0.25;0.22;;;23.50;62.10;;;;;;5024905;28;20030;-41
2022/10/04 03:18:30;;;;;;;0.65;0.40;;;23.50;62.10;;;;;;5020033;28;20049;-39
2022/10/04 03:20:57;;;;;;;0.20;0.20;;;23.50;62.10;;;;;;5020622;28;20032;-39
2022/10/04 03:23:23;;;;;;;1.05;0.30;;;23.50;62.20;;;;;;5010715;28;20580;-39
2022/10/04 03:26:07;;;;;;;0.20;0.20;;;23.50;62.20;;;;;;5030581;28;20071;-40
2022/10/04 03:28:33;;;;;;;0.75;0.30;;;23.50;62.20;;;;;;5021494;28;20037;-40
2022/10/04 03:30:59;;;;;;;1.10;0.38;;;23.50;62.10;;;;;;5039870;28;20026;-40
2022/10/04 03:33:27;;;;;;;0.75;0.38;;;23.40;62.10;;;;;;5007766;28;20030;-41
2022/10/04 03:35:54;;;;;;;1.02;0.25;;;23.40;62.20;;;;;;5020809;28;20044;-43
2022/10/04 03:38:20;;;;;;;;;;;23.40;62.10;;;;;;5019247;28;20029;-43
2022/10/04 03:40:50;;;;;;;1.05;0.30;;;23.40;62.20;;;;;;5026944;28;19913;-42
2022/10/04 03:43:16;;;;;;;0.95;0.30;;;23.40;62.10;;;;;;5015683;28;20038;-42
2022/10/04 03:45:42;;;;;;;0.43;0.30;;;23.40;62.10;;;;;;5022620;28;20026;-44
2022/10/04 03:48:12;;;;;;;0.30;0.30;;;23.40;62.10;;;;;;5023858;28;20031;-38
2022/10/04 03:50:43;;;;;;;0.40;0.30;;;23.40;62.10;;;;;;5034304;28;20030;-38
2022/10/04 03:53:36;;;;;;;0.52;0.30;;;23.40;62.10;;;;;;5019749;28;20045;-41
2022/10/04 03:56:07;;;;;;;0.20;0.20;;;23.30;62.10;;;;;;5020632;28;20034;-43
2022/10/04 03:58:34;;;;;;;0.40;0.20;;;23.30;62.10;;;;;;5028767;28;20058;-42
2022/10/04 04:01:13;;;;;;;0.50;0.40;;;23.30;62.10;;;;;;5019656;28;20040;-42
2022/10/04 04:04:21;;;;;;;0.30;0.22;;;23.30;62.10;;;;;;5016420;28;20503;-42
2022/10/04 04:07:06;;;;;;;1.08;0.30;;;23.30;62.10;;;;;;5050168;28;20034;-42
2022/10/04 04:09:46;;;;;;;0.77;0.30;;;23.30;62.10;;;;;;5028685;28;20034;-41
2022/10/04 04:12:33;;;;;;;0.47;0.30;;;23.30;62.10;;;;;;5004064;28;20031;-42
2022/10/04 04:15:00;;;;;;;0.60;0.30;;;23.30;62.10;;;;;;5019024;28;20025;-42
2022/10/04 04:17:26;;;;;;;0.30;0.30;;;23.30;62.10;;;;;;5023652;28;20590;-44
2022/10/04 04:19:58;;;;;;;0.73;0.20;;;23.30;62.10;;;;;;5022278;28;20029;-42
2022/10/04 04:22:30;;;;;;;0.28;0.25;;;23.20;62.00;;;;;;5024701;28;20060;-41
2022/10/04 04:25:04;;;;;;;0.43;0.30;;;23.20;62.00;;;;;;5022000;28;20042;-44
2022/10/04 04:27:32;;;;;;;0.82;0.20;;;23.20;62.10;;;;;;5043424;28;20033;-43
2022/10/04 04:29:59;;;;;;;0.65;0.38;;;23.20;62.00;;;;;;5031948;28;20079;-44
2022/10/04 04:32:30;;;;;;;0.35;0.30;;;23.20;62.10;;;;;;5043688;28;20022;-43
2022/10/04 04:34:59;;;;;;;1.00;0.32;;;23.20;62.10;;;;;;5033943;28;20653;-43
2022/10/04 04:37:25;;;;;;;1.10;0.20;;;23.20;62.20;;;;;;5024926;28;20018;-43
2022/10/04 04:39:55;;;;;;;0.28;0.20;;;23.20;62.30;;;;;;5032696;28;21297;-39
2022/10/04 04:42:36;;;;;;;0.28;0.20;;;23.20;62.20;;;;;;5024308;28;20042;-39
2022/10/04 04:45:24;;;;;;;1.38;0.35;;;23.20;62.20;;;;;;5022595;28;20114;-39
2022/10/04 04:47:52;;;;;;;0.10;0.10;;;23.20;62.20;;;;;;5034912;28;20088;-42
2022/10/04 04:50:23;;;;;;;1.27;0.30;;;23.20;62.20;;;;;;5008371;28;20034;-36
2022/10/04 04:53:05;;;;;;;0.40;0.30;;;23.20;62.20;;;;;;5049570;28;20034;-36
2022/10/04 04:55:46;;;;;;;0.35;0.30;;;23.20;62.20;;;;;;5017874;28;20451;-37
2022/10/04 04:58:26;;;;;;;0.30;0.30;;;23.10;62.20;;;;;;5030504;28;20101;-41
2022/10/04 05:01:08;;;;;;;0.17;0.17;;;23.10;62.20;;;;;;5020836;28;20080;-38
2022/10/04 05:03:34;;;;;;;0.38;0.28;;;23.10;62.20;;;;;;5028395;28;20047;-38
2022/10/04 05:06:03;;;;;;;0.38;0.30;;;23.10;62.20;;;;;;5021911;28;20057;-38
2022/10/04 05:08:31;;;;;;;0.20;0.20;;;23.10;62.20;;;;;;5023079;28;20034;-39
2022/10/04 05:10:57;;;;;;;0.60;0.38;;;23.10;62.10;;;;;;5022761;28;20029;-39
2022/10/04 05:13:38;;;;;;;0.50;0.32;;;23.10;62.10;;;;;;5024402;28;20036;-39
2022/10/04 05:16:06;;;;;;;0.32;0.22;;;23.10;62.10;;;;;;5002848;28;20037;-37
2022/10/04 05:18:32;;;;;;;0.60;0.30;;;23.10;62.20;;;;;;5025456;28;20030;-38
2022/10/04 05:21:12;;;;;;;0.40;0.20;;;23.10;62.10;;;;;;5036756;28;20037;-38
2022/10/04 05:23:38;;;;;;;0.50;0.20;;;23.10;62.10;;;;;;5029461;28;20140;-38
2022/10/04 05:26:08;;;;;;;0.80;0.40;;;23.10;62.10;;;;;;5022504;28;20568;-38
2022/10/04 05:28:34;;;;;;;0.40;0.28;;;23.10;62.10;;;;;;5028618;28;20048;-39
2022/10/04 05:31:03;;;;;;;0.55;0.20;;;23.10;62.10;;;;;;5026643;28;20116;-38
2022/10/04 05:33:38;;;;;;;0.20;0.20;;;23.00;62.20;;;;;;5042175;28;20024;-39
2022/10/04 05:36:08;;;;;;;0.20;0.20;;;23.00;62.30;;;;;;5023049;28;20034;-38
2022/10/04 05:39:02;;;;;;;0.63;0.32;;;23.00;62.30;;;;;;5023868;28;20026;-36
2022/10/04 05:41:49;;;;;;;0.40;0.30;;;23.00;62.30;;;;;;5021803;28;20033;-36
2022/10/04 05:44:54;;;;;;;0.30;0.30;;;23.00;62.30;;;;;;5021685;28;20034;-40
2022/10/04 05:47:23;;;;;;;0.35;0.20;;;23.00;62.40;;;;;;5006792;28;20029;-40
2022/10/04 05:49:52;;;;;;;0.20;0.20;;;23.00;62.40;;;;;;5034201;28;20037;-40
2022/10/04 05:52:29;;;;;;;0.30;0.20;;;23.00;62.30;;;;;;5004028;28;20030;-40
2022/10/04 05:55:25;;;;;;;0.28;0.28;;;22.90;62.40;;;;;;5002708;28;20061;-40
2022/10/04 05:58:17;;;;;;;0.52;0.22;;;22.90;62.30;;;;;;5027882;28;20029;-40
2022/10/04 06:00:55;;;;;;;0.20;0.20;;;22.90;62.30;;;;;;5023561;28;20781;-40
2022/10/04 06:03:43;;;;;;;0.38;0.28;;;22.90;62.30;;;;;;5032394;28;20056;-39
2022/10/04 06:06:18;;;;;;;0.45;0.30;;;22.90;62.30;;;;;;5035090;28;20088;-40
2022/10/04 06:09:21;;;;;;;0.20;0.20;;;22.90;62.30;;;;;;5033676;28;20119;-39
2022/10/04 06:11:50;;;;;;;0.65;0.40;;;22.90;62.30;;;;;;5042984;28;20041;-38
2022/10/04 06:14:33;;;;;;;0.38;0.20;;;22.90;62.30;;;;;;5023640;28;20473;-42
2022/10/04 06:17:10;;;;;;;0.55;0.20;;;22.80;62.20;;;;;;5028136;28;20036;-43
2022/10/04 06:19:47;;;;;;;0.20;0.10;;;22.80;62.30;;;;;;5020157;28;20029;-42
2022/10/04 06:22:17;;;;;;;0.30;0.20;;;22.80;62.30;;;;;;5023129;28;20046;-44
2022/10/04 06:24:54;;;;;;;0.40;0.30;;;22.80;62.30;;;;;;5020362;28;20021;-42
2022/10/04 06:27:36;;;;;;;;;;;22.80;62.30;;;;;;5021651;28;20029;-40
2022/10/04 06:30:05;;;;;;;0.50;0.28;;;22.80;62.30;;;;;;5023762;28;19924;-40
2022/10/04 06:33:02;;;;;;;0.30;0.20;;;22.80;62.30;;;;;;5023100;28;20487;-41
2022/10/04 06:35:47;;;;;;;0.50;0.28;;;22.80;62.30;;;;;;5025725;28;20023;-43
2022/10/04 06:38:51;;;;;;;0.50;0.30;;;22.70;62.30;;;;;;5022380;28;20037;-41
2022/10/04 06:41:54;;;;;;;0.20;0.20;;;22.70;62.30;;;;;;5006951;28;20152;-43
2022/10/04 06:44:39;;;;;;;0.38;0.30;;;22.70;62.30;;;;;;5034018;28;20098;-37
2022/10/04 06:47:33;;;;;;;0.30;0.20;;;22.70;62.30;;;;;;5010819;28;20026;-37
2022/10/04 06:50:13;;;;;;;0.30;0.20;;;22.70;62.50;;;;;;5021124;28;20145;-37
2022/10/04 06:53:03;;;;;;;0.40;0.20;;;22.70;62.50;;;;;;5017582;28;20066;-37
2022/10/04 06:55:49;;;;;;;0.65;0.30;;;22.70;62.60;;;;;;5022065;28;20044;-37
2022/10/04 06:58:23;;;;;;;0.20;0.20;;;22.70;62.60;;;;;;5020129;28;20039;-36
2022/10/04 07:01:01;;;;;;;0.40;0.30;;;22.70;62.60;;;;;;5026498;28;20030;-37
2022/10/04 07:03:51;;;;;;;0.50;0.38;;;22.60;62.60;;;;;;5023034;28;20099;-37
2022/10/04 07:06:24;;;;;;;0.85;0.30;;;22.60;62.60;;;;;;5027728;28;20041;-37
2022/10/04 07:08:51;;;;;;;0.40;0.32;;;22.60;62.60;;;;;;5024865;28;20061;-37
2022/10/04 07:11:31;;;;;;;0.30;0.20;;;22.60;62.60;;;;;;5020504;28;20085;-37
2022/10/04 07:14:04;;;;;;;0.70;0.30;;;22.60;62.70;;;;;;5028124;28;20041;-37
2022/10/04 07:16:44;;;;;;;0.30;0.30;;;22.60;62.60;;;;;;5023276;28;20030;-43
2022/10/04 07:19:23;;;;;;;0.68;0.30;;;22.60;62.60;;;;;;5015236;28;20035;-44
2022/10/04 07:22:10;;;;;;;0.63;0.30;;;22.60;62.60;;;;;;5021979;28;20055;-46
2022/10/04 07:25:01;;;;;;;0.63;0.35;;;22.60;62.70;;;;;;5028362;28;20075;-43
2022/10/04 07:27:31;;;;;;;0.80;0.30;;;22.60;62.70;;;;;;5031653;28;20108;-43
2022/10/04 07:29:59;;;;;;;1.10;0.30;;;22.50;62.70;;;;;;5042168;28;20057;-43
2022/10/04 07:32:29;;;;;;;0.47;0.30;;;22.50;62.70;;;;;;5019535;28;20034;-43
2022/10/04 07:35:13;;;;;;;0.50;0.25;;;22.50;62.70;;;;;;5025704;28;20026;-37
2022/10/04 07:37:59;;;;;;;0.82;0.30;;;22.50;62.70;;;;;;5012262;28;20030;-37
2022/10/04 07:40:31;;;;;;;0.60;0.40;;;22.50;62.80;;;;;;5012404;28;20057;-39
2022/10/04 07:43:23;;;;;;;0.60;0.40;;;22.50;62.80;;;;;;5025077;28;20045;-39
2022/10/04 07:45:50;;;;;;;0.20;0.20;;;22.50;63.50;;;;;;5027976;28;20056;-42
2022/10/04 07:48:22;;;;;;;1.02;0.50;;;22.40;62.70;;;;;;5023643;28;20084;-40
2022/10/04 07:51:17;;;;;;;0.57;0.40;;;22.40;62.80;;;;;;5030371;28;20087;-40
2022/10/04 07:53:53;;;;;;;0.95;0.30;;;22.40;62.80;;;;;;5033386;28;20030;-40
2022/10/04 07:56:41;;;;;;;1.23;0.30;;;22.40;63.00;;;;;;5022353;28;20038;-39
2022/10/04 07:59:25;;;;;;;0.70;0.38;;;22.40;63.00;;;;;;5035806;28;20082;-39
2022/10/04 08:01:54;;;;;;;0.70;0.30;;;22.40;63.10;;;;;;5011309;28;20034;-39
2022/10/04 08:04:46;;;;;;;0.82;0.32;;;22.30;63.10;;;;;;5006162;28;20057;-41
2022/10/04 08:08:01;;;;;;;0.40;0.38;;;22.30;63.20;;;;;;4996591;28;20070;-42
2022/10/04 08:11:06;;;;;;;0.52;0.30;;;22.30;63.20;;;;;;4966694;28;20049;-39
2022/10/04 08:13:43;;;;;;;0.57;0.40;;;22.30;63.10;;;;;;4979596;28;20150;-39
2022/10/04 08:16:29;;;;;;;0.57;0.40;;;22.30;63.10;;;;;;4982313;28;20864;-40
2022/10/04 08:19:42;;;;;;;3.45;0.77;;;22.30;63.10;;;;;;4984321;28;20061;-43
2022/10/04 08:22:28;;;;;;;11.98;1.90;;;22.30;63.30;;;;;;4977659;28;20081;-42
2022/10/04 08:25:10;;;;;;;7.72;1.95;;;22.30;63.40;;;;;;4983823;28;20106;-42
2022/10/04 08:30:52;;;;;;;6.75;1.48;;;22.20;63.80;;;;;;4982639;28;20057;-38
2022/10/04 08:33:47;;;;;;;5.93;1.35;;;22.20;63.90;;;;;;4981261;28;20039;-39
2022/10/04 08:36:31;;;;;;;7.20;1.27;;;22.20;64.00;;;;;;4980882;28;20088;-38
2022/10/04 08:38:58;;;;;;;4.80;1.20;;;22.20;63.90;;;;;;4983916;28;20039;-38
2022/10/04 08:41:43;;;;;;;5.68;1.35;;;22.20;63.80;;;;;;4981472;28;20084;-43
2022/10/04 08:44:27;;;;;;;4.85;1.00;;;22.20;63.80;;;;;;4981893;28;20039;-39
2022/10/04 08:47:12;;;;;;;4.28;0.82;;;22.20;63.60;;;;;;5030862;28;20038;-40
2022/10/04 08:49:56;;;;;;;2.88;0.80;;;22.20;63.50;;;;;;5022611;28;20033;-39
2022/10/04 08:52:46;;;;;;;3.85;1.00;;;22.20;63.40;;;;;;5014410;28;20669;-42
2022/10/04 08:55:46;;;;;;;2.22;0.80;;;22.20;63.30;;;;;;5004263;28;20037;-42
2022/10/04 08:58:28;;;;;;;4.65;0.85;;;22.10;63.10;;;;;;5028806;28;20040;-42
2022/10/04 09:01:13;;;;;;;2.45;0.90;;;22.10;63.10;;;;;;5043615;28;20021;-42
2022/10/04 09:03:42;;;;;;;3.42;0.70;;;22.10;63.00;;;;;;5032916;28;20044;-42
2022/10/04 09:06:45;;;;;;;2.45;0.70;;;22.10;63.00;;;;;;5031420;28;20022;-42
2022/10/04 09:09:33;;;;;;;1.40;0.70;;;22.10;62.90;;;;;;5005284;28;20026;-44
2022/10/04 09:12:30;;;;;;;1.95;0.70;;;22.10;62.90;;;;;;5021145;28;20022;-38
2022/10/04 09:15:19;;;;;;;3.40;0.70;;;22.10;62.90;;;;;;5023275;28;20041;-38
2022/10/04 09:18:00;;;;;;;2.22;0.73;;;22.00;62.80;;;;;;5017102;28;20026;-38
2022/10/04 09:20:44;;;;;;;4.22;0.63;;;22.10;62.80;;;;;;5006038;28;20045;-38
2022/10/04 09:23:47;;;;;;;1.42;0.80;;;22.00;62.70;;;;;;5030747;28;20117;-38
2022/10/04 09:26:38;;;;;;;1.63;0.60;;;22.00;62.70;;;;;;5027553;28;20077;-38
2022/10/04 09:29:39;;;;;;;1.20;0.60;;;22.00;62.70;;;;;;5028526;28;20115;-39
2022/10/04 09:32:25;;;;;;;0.65;0.40;;;22.00;62.60;;;;;;5030610;28;20117;-39
2022/10/04 09:34:54;;;;;;;1.73;0.50;;;22.00;62.70;;;;;;5041411;28;20040;-39
2022/10/04 09:37:38;;;;;;;0.77;0.50;;;22.00;62.70;;;;;;5023835;28;20025;-38
2022/10/04 09:40:26;;;;;;;0.90;0.60;;;21.90;62.60;;;;;;5033648;28;20840;-38
2022/10/04 09:43:27;;;;;;;1.48;0.40;;;21.90;62.60;;;;;;5018629;28;20061;-38
2022/10/04 09:46:06;;;;;;;2.03;0.60;;;21.90;62.70;;;;;;5000242;28;20060;-39
2022/10/04 09:48:42;;;;;;;1.20;0.60;;;21.90;62.60;;;;;;5025152;28;20038;-37
2022/10/04 09:51:22;;;;;;;0.47;0.40;;;21.90;62.70;;;;;;5019736;28;20021;-37
2022/10/04 09:54:18;;;;;;;0.77;0.50;;;21.90;62.60;;;;;;5024216;28;20431;-37
2022/10/04 09:57:13;;;;;;;0.55;0.40;;;21.80;62.60;;;;;;5026436;28;20038;-36
2022/10/04 09:59:50;;;;;;;1.75;0.70;;;21.80;62.60;;;;;;5022333;28;20037;-36
2022/10/04 10:02:39;;;;;;;0.50;0.47;;;21.80;62.60;;;;;;5023382;28;20025;-38
2022/10/04 10:05:30;;;;;;;0.88;0.40;;;21.80;62.60;;;;;;5043442;28;20113;-38
2022/10/04 10:08:11;;;;;;;0.90;0.40;;;21.80;62.60;;;;;;5042800;28;20041;-39
2022/10/04 10:13:53;;;;;;;0.82;0.40;;;21.80;62.60;;;;;;5029601;28;20041;-43
2022/10/04 10:16:52;;;;;;;1.15;0.60;;;21.70;62.70;;;;;;5019029;28;20018;-41
2022/10/04 10:19:24;;;;;;;;;;;21.70;62.60;;;;;;5014923;28;20037;-45
2022/10/04 10:21:57;;;;;;;0.50;0.50;;;21.70;62.60;;;;;;5024278;28;19913;-42
2022/10/04 10:24:51;;;;;;;0.90;0.50;;;21.70;62.60;;;;;;5015763;28;20050;-45
2022/10/04 10:27:36;;;;;;;0.95;0.45;;;21.70;62.70;;;;;;5023721;28;20041;-43
2022/10/04 10:30:20;;;;;;;1.27;0.52;;;21.70;62.70;;;;;;5041599;28;20521;-44
2022/10/04 10:33:08;;;;;;;1.75;0.50;;;21.60;62.70;;;;;;5030381;28;20026;-42
2022/10/04 10:35:47;;;;;;;3.38;0.70;;;21.60;62.80;;;;;;5016230;28;20076;-38
2022/10/04 10:38:41;;;;;;;3.67;0.80;;;21.60;63.30;;;;;;5024680;28;20073;-63
2022/10/04 10:41:34;;;;;;;6.28;1.02;;;21.60;63.60;;;;;;5023430;28;20053;-39
2022/10/04 10:44:19;;;;;;;5.78;0.85;;;21.60;64.20;;;;;;5020892;28;20056;-43
2022/10/04 10:47:04;;;;;;;12.43;1.30;;;21.60;64.70;;;;;;5019353;28;20037;-55
2022/10/04 10:49:58;;;;;;;10.77;1.30;;;21.60;64.70;;;;;;5018000;28;20034;-40
2022/10/04 10:52:45;;;;;;;10.88;1.20;;;21.60;64.60;;;;;;5021976;28;20145;-45
2022/10/04 10:55:51;;;;;;;7.65;1.30;;;21.60;64.60;;;;;;5024333;28;20071;-39
2022/10/04 10:58:30;;;;;;;10.98;1.70;;;21.60;64.70;;;;;;5011345;28;20137;-39
2022/10/04 11:01:18;;;;;;;12.70;1.45;;;21.60;64.70;;;;;;5024498;28;20025;-39
2022/10/04 11:04:13;;;;;;;8.67;1.50;;;21.60;64.80;;;;;;5022281;28;20375;-39
2022/10/04 11:07:03;;;;;;;3.97;1.10;;;21.60;64.70;;;;;;5032190;28;20329;-39
2022/10/04 11:09:29;;;;;;;9.68;1.15;;;21.60;64.60;;;;;;5020906;28;20053;-38
2022/10/04 11:12:14;;;;;;;3.72;0.80;;;21.60;64.50;;;;;;5020968;28;20093;-39
2022/10/04 11:15:04;;;;;;;5.60;1.00;;;21.60;64.40;;;;;;5023994;28;20025;-39
2022/10/04 11:18:16;;;;;;;6.22;1.00;;;21.60;64.40;;;;;;5023765;28;20018;-40
2022/10/04 11:21:10;;;;;;;3.85;0.70;;;21.60;64.20;;;;;;5027334;28;20030;-40
2022/10/04 11:23:50;;;;;;;6.75;0.65;;;21.50;64.20;;;;;;5033473;28;20540;-40
2022/10/04 11:26:35;;;;;;;6.53;0.93;;;21.50;64.10;;;;;;5034072;28;20037;-39
2022/10/04 11:29:30;;;;;;;5.75;1.00;;;21.50;64.10;;;;;;5022831;28;20069;-40
2022/10/04 11:32:31;;;;;;;4.55;0.68;;;21.50;64.00;;;;;;5041446;28;20056;-39
2022/10/04 11:35:35;;;;;;;3.67;0.80;;;21.60;64.00;;;;;;5033481;28;20037;-39
2022/10/04 11:38:14;;;;;;;2.40;0.65;;;21.50;63.90;;;;;;5010873;28;20042;-40
2022/10/04 11:40:49;;;;;;;2.55;0.82;;;21.50;63.90;;;;;;5012646;28;20026;-40
2022/10/04 11:43:41;;;;;;;4.30;0.68;;;21.50;63.90;;;;;;5011981;28;20665;-40
2022/10/04 11:46:38;;;;;;;1.83;0.68;;;21.50;63.80;;;;;;5012411;28;20113;-39
2022/10/04 11:49:43;;;;;;;1.48;0.57;;;21.50;63.80;;;;;;5012582;28;22366;-39
2022/10/04 11:52:35;;;;;;;1.40;0.50;;;21.50;63.70;;;;;;4937535;29;20035;-38
2022/10/04 11:55:26;;;;;;;1.90;0.70;;;21.40;63.70;;;;;;4943061;29;20035;-38
2022/10/04 11:58:02;;;;;;;1.38;0.57;;;21.40;63.70;;;;;;4924783;29;20036;-40
2022/10/04 12:01:03;;;;;;;4.13;0.60;;;21.40;63.60;;;;;;4936634;29;20047;-39
2022/10/04 12:03:35;;;;;;;1.60;0.60;;;21.40;63.60;;;;;;4941273;29;20095;-38
2022/10/04 12:06:21;;;;;;;0.75;0.52;;;21.40;63.50;;;;;;4934419;29;20031;-38
2022/10/04 12:09:04;;;;;;;1.73;0.60;;;21.40;63.50;;;;;;4936667;29;20804;-40
2022/10/04 12:15:12;;;;;;;2.35;0.50;;;21.40;63.50;;;;;;4907410;29;20047;-38
2022/10/04 12:18:07;;;;;;;1.40;0.50;;;21.40;63.50;;;;;;4904715;29;20033;-39
2022/10/04 12:20:39;;;;;;;2.03;0.70;;;21.30;63.40;;;;;;4905690;29;20100;-39
2022/10/04 12:23:32;;;;;;;1.08;0.50;;;21.30;63.40;;;;;;4903864;29;20076;-39
2022/10/04 12:26:31;;;;;;;1.50;0.50;;;21.30;63.40;;;;;;4921753;29;20046;-39
2022/10/04 12:29:14;;;;;;;1.02;0.50;;;21.30;63.40;;;;;;4943351;29;20031;-39
2022/10/04 12:31:54;;;;;;;2.88;0.63;;;21.30;63.40;;;;;;4951017;29;20050;-39
2022/10/04 12:34:44;;;;;;;0.73;0.50;;;21.30;63.40;;;;;;4928453;29;20024;-40
2022/10/04 12:37:24;;;;;;;0.90;0.45;;;21.30;63.40;;;;;;4930602;29;20035;-40
2022/10/04 12:39:53;;;;;;;2.80;0.60;;;21.20;63.40;;;;;;4943813;29;20047;-47
2022/10/04 12:42:28;;;;;;;0.90;0.50;;;21.20;63.40;;;;;;4944765;29;20032;-40
2022/10/04 12:45:28;;;;;;;1.23;0.50;;;21.20;63.30;;;;;;4927641;29;20043;-39
2022/10/04 12:48:19;;;;;;;0.50;0.40;;;21.20;63.40;;;;;;4928196;29;20119;-40
2022/10/04 12:50:48;;;;;;;1.02;0.60;;;21.20;63.50;;;;;;4977904;28;20176;-39
2022/10/04 12:53:50;;;;;;;0.40;0.40;;;21.20;63.30;;;;;;5022035;28;20225;-40
2022/10/04 12:56:21;;;;;;;1.05;0.50;;;21.20;63.30;;;;;;5026333;28;20033;-39
2022/10/04 12:59:09;;;;;;;1.70;0.60;;;21.20;63.30;;;;;;5036808;28;20083;-40
2022/10/04 13:01:44;;;;;;;0.60;0.40;;;21.10;63.30;;;;;;5044849;28;20022;-39
2022/10/04 13:04:38;;;;;;;1.08;0.60;;;21.10;63.30;;;;;;5020577;28;20049;-39
2022/10/04 13:07:13;;;;;;;0.50;0.45;;;21.10;63.30;;;;;;5028684;28;20044;-39
2022/10/04 13:10:06;;;;;;;1.65;0.60;;;21.10;63.30;;;;;;5018424;28;20030;-39
2022/10/04 13:13:17;;;;;;;0.68;0.43;;;21.10;63.30;;;;;;5018181;28;20102;-40
2022/10/04 13:15:49;;;;;;;0.55;0.40;;;21.10;63.30;;;;;;5015652;28;20033;-39
2022/10/04 13:18:24;;;;;;;1.35;0.50;;;21.10;63.30;;;;;;5015704;28;20041;-40
2022/10/04 13:21:01;;;;;;;0.55;0.40;;;21.10;63.30;;;;;;5016304;28;20064;-39
2022/10/04 13:23:43;;;;;;;1.30;0.47;;;21.00;63.30;;;;;;5013108;28;20073;-39
2022/10/04 13:26:25;;;;;;;0.45;0.30;;;21.00;63.30;;;;;;5016607;28;20033;-39
2022/10/04 13:29:11;;;;;;;1.42;0.50;;;21.00;63.30;;;;;;5017027;28;20064;-40
2022/10/04 13:31:51;;;;;;;0.90;0.52;;;21.00;63.30;;;;;;5016616;28;20053;-39
2022/10/04 13:34:36;;;;;;;0.93;0.50;;;21.00;63.30;;;;;;5015566;28;20026;-39
2022/10/04 13:37:17;;;;;;;1.00;0.60;;;21.00;63.40;;;;;;5011922;28;20490;-39
2022/10/04 13:40:20;;;;;;;1.23;0.52;;;20.90;63.30;;;;;;5021816;28;20053;-39
2022/10/04 13:43:12;;;;;;;0.88;0.60;;;21.00;63.40;;;;;;5040039;28;20057;-45
2022/10/04 13:46:01;;;;;;;1.70;0.43;;;21.00;63.40;;;;;;4993064;28;20058;-39
2022/10/04 13:48:30;;;;;;;0.52;0.40;;;20.90;63.40;;;;;;4969150;28;20054;-40
2022/10/04 13:51:06;;;;;;;0.88;0.50;;;20.90;63.30;;;;;;4981939;28;20035;-39
2022/10/04 13:57:28;;;;;;;1.27;0.40;;;20.90;63.40;;;;;;4987702;28;20034;-40
2022/10/04 14:00:24;;;;;;;0.52;0.50;;;20.90;63.40;;;;;;4911591;29;20044;-40
2022/10/04 14:02:59;;;;;;;0.55;0.40;;;20.90;63.40;;;;;;4923384;29;20048;-39
2022/10/04 14:05:54;;;;;;;0.65;0.40;;;20.90;63.50;;;;;;4916976;29;20643;-39
2022/10/04 14:08:35;;;;;;;0.60;0.55;;;20.90;63.50;;;;;;4904587;29;20099;-41
2022/10/04 14:11:33;;;;;;;0.50;0.40;;;20.90;63.50;;;;;;4905370;29;20046;-40
2022/10/04 14:14:09;;;;;;;0.40;0.32;;;20.90;63.50;;;;;;4903813;29;20060;-39